Time;durP1;ratioP1;P1;durP2;ratioP2;P2;SDS_P1;SDS_P2;PMS_P1;PMS_P2;Temp;Humidity;BMP_temperature;BMP_pressure;BME280_temperature;BME280_humidity;BME280_pressure;Samples;Min_cycle;Max_cycle;Signal;HPM_P1;HPM_P2
2023/07/16 00:03:53;;;;;;;11.48;3.45;;;;;;;25.81;49.01;100051.20;5037949;57;1138644;-72
2023/07/16 00:08:59;;;;;;;6.53;4.08;;;;;;;25.72;49.42;100043.59;5042003;57;1140707;-72
2023/07/16 00:14:05;;;;;;;3.80;3.20;;;;;;;25.65;49.82;100041.00;5042178;57;1138581;-72
2023/07/16 00:19:13;;;;;;;8.87;4.40;;;;;;;25.54;50.27;100033.59;5039123;57;1138650;-72
2023/07/16 00:24:18;;;;;;;8.65;3.60;;;;;;;25.43;50.48;100028.95;5057786;57;1138827;-72
2023/07/16 00:29:24;;;;;;;6.00;3.58;;;;;;;25.35;50.81;100032.81;5042536;57;1138588;-73
2023/07/16 00:34:30;;;;;;;5.37;4.08;;;;;;;25.31;50.62;100024.83;5041798;57;1138626;-72
2023/07/16 00:39:36;;;;;;;5.33;3.92;;;;;;;25.28;50.66;100021.22;5061623;57;1138387;-73
2023/07/16 00:44:42;;;;;;;4.70;4.25;;;;;;;25.24;50.72;100031.67;5078447;56;1138779;-72
2023/07/16 00:49:47;;;;;;;11.28;4.55;;;;;;;25.17;50.82;100024.69;5095150;56;1138626;-72
2023/07/16 00:54:53;;;;;;;4.80;4.28;;;;;;;25.12;51.07;100011.00;5116110;56;1140787;-73
2023/07/16 01:00:00;;;;;;;7.95;4.15;;;;;;;25.07;51.34;100000.84;5055724;56;1138852;-73
2023/07/16 01:05:06;;;;;;;11.30;4.70;;;;;;;24.98;51.52;99997.33;5054734;57;1138744;-72
2023/07/16 01:10:12;;;;;;;4.87;4.23;;;;;;;24.92;51.87;99995.48;5007837;57;1138883;-73
2023/07/16 01:15:18;;;;;;;10.95;4.35;;;;;;;24.84;52.21;99989.33;5018828;57;1136858;-71
2023/07/16 01:20:23;;;;;;;5.35;4.22;;;;;;;24.79;52.49;99981.05;4965684;57;1138862;-72
2023/07/16 01:25:42;;;;;;;14.00;5.03;;;;;;;24.80;52.54;99998.94;4918566;58;1136829;-72
2023/07/16 01:30:49;;;;;;;7.70;4.83;;;;;;;24.83;52.69;100003.91;4937789;58;1138895;-72
2023/07/16 01:35:55;;;;;;;5.92;4.17;;;;;;;24.86;53.00;100008.05;4921046;58;1138665;-72
2023/07/16 01:41:01;;;;;;;7.85;4.20;;;;;;;24.82;53.18;100017.13;4998483;57;1138956;-72
2023/07/16 01:46:07;;;;;;;4.15;3.83;;;;;;;24.88;53.41;100024.36;4926125;58;1138778;-72
2023/07/16 01:51:14;;;;;;;11.03;4.30;;;;;;;24.91;53.55;100023.05;4933855;58;1138747;-72
2023/07/16 01:56:19;;;;;;;6.37;4.40;;;;;;;24.89;53.79;100025.19;4914330;58;1140828;-71
2023/07/16 02:01:26;;;;;;;7.95;4.65;;;;;;;24.82;53.74;100021.70;5005877;58;1138744;-72
2023/07/16 02:06:32;;;;;;;4.72;4.17;;;;;;;24.78;54.08;100009.67;5025642;58;1138650;-72
2023/07/16 02:11:37;;;;;;;12.63;4.67;;;;;;;24.74;54.49;100009.84;4914588;58;1138590;-72
2023/07/16 02:16:43;;;;;;;9.43;5.62;;;;;;;24.69;54.75;100005.62;4914276;57;1140933;-72
2023/07/16 02:21:49;;;;;;;13.22;5.10;;;;;;;24.66;54.98;100007.41;4992155;57;1138877;-72
2023/07/16 02:26:54;;;;;;;7.00;4.85;;;;;;;24.54;55.57;99995.16;4918050;58;1140946;-72
2023/07/16 02:32:01;;;;;;;5.28;4.20;;;;;;;24.38;56.42;99984.38;4931217;58;1136968;-73
2023/07/16 02:37:06;;;;;;;6.37;5.10;;;;;;;24.22;56.93;99984.08;4999098;58;1137177;-72
2023/07/16 02:42:12;;;;;;;9.63;4.45;;;;;;;24.14;57.34;99975.18;5018531;57;1137155;-72
2023/07/16 02:47:18;;;;;;;6.60;4.33;;;;;;;24.05;58.52;99963.53;4998860;57;1136661;-72
2023/07/16 02:52:23;;;;;;;8.73;4.45;;;;;;;23.94;59.68;99932.66;4998939;57;1136611;-72
2023/07/16 02:57:31;;;;;;;8.55;4.50;;;;;;;23.92;59.94;99963.63;5009072;57;1136776;-72
2023/07/16 03:02:37;;;;;;;5.20;4.75;;;;;;;23.98;60.73;99963.59;4978090;57;1136740;-72
2023/07/16 03:07:44;;;;;;;7.70;4.55;;;;;;;24.01;60.50;99968.53;4918532;58;1136615;-72
2023/07/16 03:12:50;;;;;;;9.70;3.90;;;;;;;24.03;60.55;99980.48;4968969;58;1136768;-72
2023/07/16 03:17:56;;;;;;;6.03;4.62;;;;;;;23.97;61.09;100005.16;5053828;56;1136610;-72
2023/07/16 03:23:02;;;;;;;10.88;4.54;;;;;;;23.82;62.04;100000.07;5013877;57;1138897;-73
2023/07/16 03:28:08;;;;;;;7.47;4.58;;;;;;;23.80;62.08;100004.03;4958757;58;1141046;-72
2023/07/16 03:33:13;;;;;;;8.05;4.58;;;;;;;23.77;62.23;100014.73;4991557;57;1139087;-72
2023/07/16 03:38:19;;;;;;;4.70;4.30;;;;;;;23.74;62.33;100033.23;4968922;57;1139076;-71
2023/07/16 03:43:25;;;;;;;10.70;4.40;;;;;;;23.75;62.91;100034.89;4997680;56;1138778;-72
2023/07/16 03:48:32;;;;;;;6.17;4.60;;;;;;;23.79;63.46;100046.93;5074261;57;1140767;-72
2023/07/16 03:53:38;;;;;;;4.65;3.98;;;;;;;23.78;63.46;100069.05;5055302;57;1138800;-72
2023/07/16 03:58:44;;;;;;;8.78;4.08;;;;;;;23.75;64.18;100068.13;5055563;56;1138632;-72
2023/07/16 04:03:49;;;;;;;4.03;3.62;;;;;;;23.72;65.99;100073.12;5075482;57;1138922;-72
2023/07/16 04:08:55;;;;;;;3.90;3.60;;;;;;;23.68;67.30;100079.47;5053695;57;1138727;-72
2023/07/16 04:14:01;;;;;;;6.33;4.12;;;;;;;23.71;69.27;100097.95;5055344;56;1138663;-72
2023/07/16 04:19:07;;;;;;;7.30;3.72;;;;;;;23.71;69.50;100104.70;5054607;57;1138898;-72
2023/07/16 04:24:12;;;;;;;4.00;3.60;;;;;;;23.73;71.17;100105.32;5009670;57;1138635;-72
2023/07/16 04:29:18;;;;;;;6.63;3.93;;;;;;;23.79;71.06;100118.50;4973549;57;1138674;-72
2023/07/16 04:34:24;;;;;;;4.60;4.12;;;;;;;23.86;71.15;100127.38;4971837;57;1138884;-72
2023/07/16 04:39:29;;;;;;;13.62;4.50;;;;;;;23.93;71.82;100139.00;4988839;57;1138890;-72
2023/07/16 04:44:35;;;;;;;4.97;3.65;;;;;;;23.95;71.63;100138.27;5017703;57;1141010;-72
2023/07/16 04:49:40;;;;;;;5.25;3.75;;;;;;;24.00;71.61;100146.53;5054792;57;1174586;-72
2023/07/16 04:54:46;;;;;;;4.50;4.10;;;;;;;24.07;70.82;100162.72;5073773;57;1208440;-72
2023/07/16 04:59:52;;;;;;;4.87;3.75;;;;;;;24.15;70.63;100165.16;5053638;56;1239196;-72
2023/07/16 05:04:57;;;;;;;5.58;2.85;;;;;;;24.24;69.85;100163.91;5001409;57;1138634;-72
2023/07/16 05:10:04;;;;;;;2.60;2.50;;;;;;;24.36;69.90;100159.47;5079867;57;1138876;-74
2023/07/16 05:15:10;;;;;;;3.00;2.80;;;;;;;24.48;69.40;100165.00;5039380;57;1182188;-72
2023/07/16 05:20:16;;;;;;;3.63;3.20;;;;;;;24.56;69.64;100181.50;4973738;58;1140188;-72
2023/07/16 05:25:21;;;;;;;4.70;3.57;;;;;;;24.66;69.44;100198.89;5072516;57;1240541;-72
2023/07/16 05:30:27;;;;;;;3.45;3.10;;;;;;;24.75;69.15;100196.22;5055406;57;1138623;-72
2023/07/16 05:35:32;;;;;;;3.02;2.72;;;;;;;24.86;69.09;100213.64;4994732;57;1138664;-72
2023/07/16 05:40:38;;;;;;;6.25;2.77;;;;;;;24.99;69.33;100233.03;5014698;57;1138631;-73
2023/07/16 05:45:44;;;;;;;3.30;2.92;;;;;;;25.13;69.68;100239.99;5011081;56;1138930;-72
2023/07/16 05:50:49;;;;;;;4.25;2.70;;;;;;;25.24;69.69;100240.09;5052027;56;1138861;-72
2023/07/16 05:55:55;;;;;;;3.60;2.77;;;;;;;25.40;69.63;100251.41;5077191;57;1138884;-72
2023/07/16 06:01:00;;;;;;;3.80;2.42;;;;;;;25.53;69.40;100256.18;5057445;57;1138821;-73
2023/07/16 06:06:06;;;;;;;2.12;1.98;;;;;;;25.72;69.79;100272.50;5055677;56;1138727;-72
2023/07/16 06:11:12;;;;;;;4.72;2.30;;;;;;;25.85;70.04;100268.30;5048520;56;1138932;-72
2023/07/16 06:16:18;;;;;;;2.85;2.65;;;;;;;25.95;68.24;100279.98;4913166;58;1138987;-72
2023/07/16 06:21:23;;;;;;;7.72;2.40;;;;;;;25.90;68.46;100282.01;4957370;57;1138808;-72
2023/07/16 06:26:29;;;;;;;10.75;2.35;;;;;;;25.82;67.34;100276.87;5018772;57;1139414;-72
2023/07/16 06:31:36;;;;;;;2.27;1.77;;;;;;;25.77;67.67;100295.17;5036201;57;1247357;-72
2023/07/16 06:36:41;;;;;;;3.45;2.12;;;;;;;25.81;67.59;100280.66;4937484;57;1241558;-72
2023/07/16 06:41:47;;;;;;;3.08;2.45;;;;;;;25.84;68.33;100290.50;5064185;56;1245681;-72
2023/07/16 06:46:52;;;;;;;3.92;1.85;;;;;;;25.80;68.14;100285.77;5036133;57;1139589;-72
2023/07/16 06:51:58;;;;;;;5.80;1.75;;;;;;;25.80;68.31;100283.89;4996976;57;1154451;-72
2023/07/16 06:57:04;;;;;;;4.42;2.12;;;;;;;25.90;68.96;100298.27;4972831;57;1244143;-72
2023/07/16 07:02:09;;;;;;;2.22;2.02;;;;;;;26.01;68.14;100313.77;5001856;57;1252361;-73
2023/07/16 07:07:15;;;;;;;4.37;2.00;;;;;;;26.01;68.27;100308.88;4986165;57;1252480;-73
2023/07/16 07:12:21;;;;;;;2.85;2.45;;;;;;;25.92;68.72;100313.78;4934104;58;1256065;-72
2023/07/16 07:17:26;;;;;;;2.35;1.95;;;;;;;25.89;68.76;100312.86;4937738;58;1138867;-72
2023/07/16 07:22:32;;;;;;;3.35;2.00;;;;;;;25.85;69.24;100323.84;5005486;57;1138838;-72
2023/07/16 07:27:38;;;;;;;2.50;2.30;;;;;;;25.78;69.51;100328.52;4968717;57;1253426;-73
2023/07/16 07:32:43;;;;;;;3.70;2.05;;;;;;;25.71;69.99;100331.27;4937365;58;1139462;-73
2023/07/16 07:37:49;;;;;;;3.40;2.40;;;;;;;25.69;69.95;100336.08;4982503;56;1235578;-73
2023/07/16 07:42:55;;;;;;;5.08;1.98;;;;;;;25.71;70.50;100333.14;5011799;57;1237283;-73
2023/07/16 07:48:00;;;;;;;2.00;1.90;;;;;;;25.72;71.51;100371.38;4995497;56;1231283;-72
2023/07/16 07:53:07;;;;;;;4.00;2.12;;;;;;;25.74;72.30;100376.05;5008660;57;1139669;-74
2023/07/16 07:58:13;;;;;;;2.80;2.55;;;;;;;25.76;71.15;100368.54;4983550;57;1235705;-74
2023/07/16 08:03:19;;;;;;;3.58;2.52;;;;;;;25.80;70.92;100354.34;4971469;57;1224288;-72
2023/07/16 08:08:25;;;;;;;2.63;2.30;;;;;;;25.77;71.17;100360.19;5010189;57;1246031;-72
2023/07/16 08:13:31;;;;;;;1.72;1.70;;;;;;;25.73;70.60;100382.00;5027101;56;1138824;-73
2023/07/16 08:18:37;;;;;;;7.75;3.20;;;;;;;25.69;71.23;100398.91;4974535;56;1245561;-73
2023/07/16 08:23:43;;;;;;;2.05;1.60;;;;;;;25.67;72.29;100424.02;4971475;57;1253307;-73
2023/07/16 08:28:49;;;;;;;2.10;2.00;;;;;;;25.57;72.23;100440.73;5001601;56;1251974;-73
2023/07/16 08:33:54;;;;;;;1.72;1.67;;;;;;;25.47;72.09;100459.36;4964296;57;1238932;-73
2023/07/16 08:39:00;;;;;;;2.12;1.75;;;;;;;25.21;73.87;100484.67;5016903;57;1250127;-72
2023/07/16 08:44:08;;;;;;;1.95;1.72;;;;;;;24.88;78.07;100501.03;5030810;56;1138918;-73
2023/07/16 08:49:15;;;;;;;1.92;1.80;;;;;;;24.49;81.77;100510.88;5001867;56;1139183;-72
2023/07/16 08:54:20;;;;;;;2.10;1.92;;;;;;;24.05;86.13;100512.83;4950541;56;1138861;-73
2023/07/16 08:59:28;;;;;;;1.60;1.55;;;;;;;23.73;87.87;100505.00;4999314;57;1138949;-72
2023/07/16 09:04:34;;;;;;;1.77;1.62;;;;;;;23.49;92.21;100505.03;4998876;57;1138620;-73
2023/07/16 09:09:40;;;;;;;5.65;1.80;;;;;;;23.36;93.68;100496.06;4981786;57;1139238;-73
2023/07/16 09:14:46;;;;;;;1.77;1.60;;;;;;;23.36;94.13;100478.00;4958058;57;1138779;-73
2023/07/16 09:19:53;;;;;;;9.13;3.58;;;;;;;23.36;95.52;100473.95;5002833;57;1138741;-72
2023/07/16 09:25:01;;;;;;;3.65;2.05;;;;;;;23.39;95.70;100478.91;4929478;57;1138699;-73
2023/07/16 09:30:10;;;;;;;2.47;2.27;;;;;;;23.41;95.73;100480.90;4926686;56;1138888;-68
2023/07/16 09:35:17;;;;;;;3.10;2.30;;;;;;;23.49;95.98;100470.45;5004963;57;1173458;-72
2023/07/16 09:40:23;;;;;;;2.70;1.98;;;;;;;23.54;96.16;100461.75;4917536;58;1139050;-73
2023/07/16 09:45:29;;;;;;;2.70;2.50;;;;;;;23.60;96.94;100465.82;4972998;58;1138844;-73
2023/07/16 09:50:36;;;;;;;9.43;2.33;;;;;;;23.57;98.42;100468.92;5014978;57;1138764;-73
2023/07/16 09:55:42;;;;;;;4.17;2.45;;;;;;;23.53;99.65;100446.61;5019056;57;1138817;-72
2023/07/16 10:00:49;;;;;;;2.17;1.98;;;;;;;23.60;100.00;100474.44;5017613;57;1138668;-73
2023/07/16 10:05:54;;;;;;;2.50;2.33;;;;;;;23.71;100.00;100462.51;5037925;57;1140766;-74
2023/07/16 10:11:00;;;;;;;2.67;2.47;;;;;;;24.04;100.00;100481.45;4992196;57;1141114;-73
2023/07/16 10:16:08;;;;;;;3.10;2.60;;;;;;;24.06;100.00;100482.07;5018508;57;1140669;-73
2023/07/16 10:21:13;;;;;;;3.33;2.30;;;;;;;24.33;100.00;100460.46;5003034;57;1140782;-73
2023/07/16 10:26:18;;;;;;;2.67;2.47;;;;;;;24.56;100.00;100453.26;4966747;57;1140943;-73
2023/07/16 10:31:26;;;;;;;2.15;1.98;;;;;;;24.77;100.00;100456.51;4951345;57;1140992;-72
2023/07/16 10:36:40;;;;;;;2.50;2.30;;;;;;;25.11;100.00;100455.89;4937723;57;1141033;-66
2023/07/16 10:41:46;;;;;;;2.37;1.98;;;;;;;25.23;96.19;100464.47;4980115;57;1140748;-67
2023/07/16 10:46:54;;;;;;;2.87;2.67;;;;;;;25.56;98.32;100462.10;4976463;57;1138564;-65
2023/07/16 10:52:04;;;;;;;2.20;2.10;;;;;;;25.69;93.82;100461.20;4914777;57;1138905;-69
2023/07/16 10:57:12;;;;;;;1.80;1.70;;;;;;;25.77;93.34;100464.50;4929778;58;1138658;-69
2023/07/16 11:02:19;;;;;;;2.62;2.12;;;;;;;26.06;89.57;100472.50;5013814;57;1138633;-66
2023/07/16 11:07:25;;;;;;;4.35;2.15;;;;;;;26.26;87.49;100470.98;4965310;57;1138599;-68
2023/07/16 11:12:31;;;;;;;1.80;1.70;;;;;;;26.55;86.27;100467.59;4926211;57;1138923;-66
2023/07/16 11:17:41;;;;;;;1.87;1.77;;;;;;;26.78;81.32;100474.22;4948340;57;1138823;-65
2023/07/16 11:22:48;;;;;;;2.17;1.72;;;;;;;26.96;79.87;100475.09;4928762;58;1138935;-66
2023/07/16 11:27:58;;;;;;;1.67;1.65;;;;;;;27.07;78.37;100469.41;4893121;58;1138478;-67
2023/07/16 11:33:04;;;;;;;1.92;1.65;;;;;;;27.29;77.52;100472.48;5029491;58;1138962;-68
2023/07/16 11:38:09;;;;;;;1.45;1.45;;;;;;;27.46;75.35;100463.99;5009833;57;1138666;-68
2023/07/16 11:43:15;;;;;;;1.37;1.37;;;;;;;27.73;74.70;100463.09;4966754;57;1138897;-66
2023/07/16 11:48:21;;;;;;;1.60;1.42;;;;;;;27.90;69.74;100462.72;5029502;57;1138696;-67
2023/07/16 11:53:26;;;;;;;1.55;1.45;;;;;;;27.60;70.04;100457.34;4931251;58;1138854;-66
2023/07/16 11:58:32;;;;;;;3.83;1.42;;;;;;;27.62;73.15;100452.50;5007133;58;1138706;-66
2023/07/16 12:03:37;;;;;;;1.87;1.80;;;;;;;27.79;72.71;100459.98;5002025;57;1138829;-67
2023/07/16 12:08:43;;;;;;;1.47;1.47;;;;;;;27.82;71.96;100467.65;4962893;57;1138821;-65
2023/07/16 12:13:48;;;;;;;1.30;1.30;;;;;;;27.97;69.70;100459.88;4985667;57;1138793;-69
2023/07/16 12:18:54;;;;;;;1.80;1.47;;;;;;;28.03;68.13;100456.23;4941958;57;1138815;-66
2023/07/16 12:24:00;;;;;;;1.50;1.40;;;;;;;28.03;69.09;100464.92;4957370;57;1138831;-68
2023/07/16 12:29:05;;;;;;;3.25;1.70;;;;;;;27.95;67.58;100471.02;4921471;58;1138882;-67
2023/07/16 12:34:12;;;;;;;1.47;1.37;;;;;;;28.02;68.79;100466.81;4948997;57;1138749;-68
2023/07/16 12:39:18;;;;;;;1.70;1.60;;;;;;;28.11;66.50;100459.95;4992574;57;1138820;-67
2023/07/16 12:44:24;;;;;;;1.62;1.52;;;;;;;28.06;66.77;100469.36;4953752;57;1138936;-67
2023/07/16 12:49:30;;;;;;;1.90;1.50;;;;;;;28.14;63.77;100469.00;4933095;57;1138766;-65
2023/07/16 12:54:35;;;;;;;1.22;1.10;;;;;;;28.29;64.84;100459.05;4956752;57;1138834;-68
2023/07/16 12:59:41;;;;;;;2.15;1.95;;;;;;;28.38;65.37;100460.37;4983411;57;1139057;-70
2023/07/16 13:04:47;;;;;;;1.10;1.05;;;;;;;28.31;64.06;100460.47;4985494;57;1138789;-66
2023/07/16 13:09:52;;;;;;;1.47;1.27;;;;;;;28.49;64.05;100457.33;5015111;57;1138817;-69
2023/07/16 13:14:58;;;;;;;1.40;1.35;;;;;;;28.81;62.64;100462.70;5025212;57;1138878;-66
2023/07/16 13:20:05;;;;;;;1.98;1.55;;;;;;;29.08;62.00;100467.07;5024263;57;1138729;-68
2023/07/16 13:25:10;;;;;;;1.65;1.55;;;;;;;29.26;59.69;100465.53;4967009;57;1139014;-65
2023/07/16 13:30:16;;;;;;;1.20;1.20;;;;;;;29.41;57.72;100448.67;4964301;57;1138785;-67
2023/07/16 13:35:23;;;;;;;1.42;1.10;;;;;;;29.32;59.20;100446.86;5009420;57;1139197;-69
2023/07/16 13:40:28;;;;;;;2.10;1.40;;;;;;;29.24;54.45;100448.59;5023414;57;1138484;-66
2023/07/16 13:45:35;;;;;;;3.35;1.52;;;;;;;29.26;56.24;100456.53;5044565;57;1138885;-66
2023/07/16 13:50:41;;;;;;;1.92;1.62;;;;;;;29.33;54.67;100452.58;4993769;57;1138624;-67
2023/07/16 13:55:47;;;;;;;1.98;1.40;;;;;;;29.59;52.41;100457.18;4996142;57;1139001;-68
2023/07/16 14:00:53;;;;;;;1.60;1.50;;;;;;;29.74;51.68;100461.00;5015011;57;1138746;-69
2023/07/16 14:05:58;;;;;;;1.22;1.12;;;;;;;29.91;50.52;100461.55;4983650;57;1139236;-69
2023/07/16 14:11:04;;;;;;;1.42;1.12;;;;;;;30.02;49.63;100461.50;4981775;57;1138985;-66
2023/07/16 14:16:10;;;;;;;1.32;1.30;;;;;;;30.15;50.80;100464.42;4985840;57;1142574;-68
2023/07/16 14:21:16;;;;;;;4.33;1.30;;;;;;;30.20;48.25;100466.41;5009141;57;1139089;-68
2023/07/16 14:26:21;;;;;;;4.87;2.17;;;;;;;30.10;48.12;100460.80;4998847;57;1138721;-67
2023/07/16 14:31:27;;;;;;;1.20;1.20;;;;;;;30.05;48.93;100455.55;5025026;57;1138859;-69
2023/07/16 14:36:32;;;;;;;1.40;1.40;;;;;;;29.79;48.81;100450.70;5106902;56;1139135;-68
2023/07/16 14:41:38;;;;;;;1.90;1.72;;;;;;;29.69;47.50;100447.27;5069375;56;1138956;-66
2023/07/16 14:46:44;;;;;;;1.82;1.60;;;;;;;29.74;47.18;100452.00;5042920;56;1138757;-67
2023/07/16 14:51:49;;;;;;;2.80;1.75;;;;;;;29.89;45.36;100439.98;5048847;57;1138619;-68
2023/07/16 14:56:55;;;;;;;2.00;1.80;;;;;;;29.91;46.31;100437.02;4984584;57;1138943;-67
2023/07/16 15:02:01;;;;;;;4.12;1.70;;;;;;;30.03;44.47;100435.05;4973536;57;1138735;-68
2023/07/16 15:07:07;;;;;;;1.72;1.67;;;;;;;30.13;42.66;100429.73;5083563;56;1138918;-67
2023/07/16 15:12:12;;;;;;;2.08;1.87;;;;;;;30.10;41.98;100428.08;5039345;56;1139163;-67
2023/07/16 15:17:18;;;;;;;4.77;2.40;;;;;;;29.96;41.21;100422.07;5001676;57;1138740;-68
2023/07/16 15:22:24;;;;;;;2.20;1.95;;;;;;;30.08;43.73;100422.86;5019960;56;1138787;-66
2023/07/16 15:27:29;;;;;;;1.67;1.60;;;;;;;30.26;43.63;100432.66;4990558;56;1138840;-67
2023/07/16 15:32:35;;;;;;;1.52;1.42;;;;;;;30.06;42.65;100429.10;4960544;57;1138591;-69
2023/07/16 15:37:41;;;;;;;1.80;1.70;;;;;;;29.81;44.52;100427.28;5045918;57;1138501;-66
2023/07/16 15:42:47;;;;;;;3.65;1.80;;;;;;;29.84;46.10;100426.79;4879983;58;1138626;-66
2023/07/16 15:47:58;;;;;;;2.55;1.70;;;;;;;29.79;46.59;100430.25;4877999;58;1139092;-66
2023/07/16 15:53:00;;;;;;;4.00;1.90;;;;;;;29.74;46.82;100426.92;4969112;58;1138708;-69
2023/07/16 15:58:06;;;;;;;3.42;1.70;;;;;;;29.66;46.45;100420.50;4957451;57;1138616;-68
2023/07/16 16:03:13;;;;;;;2.85;1.82;;;;;;;29.74;47.57;100423.37;4957127;58;1138870;-68
2023/07/16 16:08:22;;;;;;;1.70;1.60;;;;;;;29.84;47.79;100422.16;4931430;58;1138752;-68
2023/07/16 16:13:28;;;;;;;1.52;1.42;;;;;;;29.95;47.47;100425.34;4976762;58;1139135;-69
2023/07/16 16:18:33;;;;;;;4.53;2.10;;;;;;;30.04;46.66;100431.25;4957312;58;1138827;-68
2023/07/16 16:23:39;;;;;;;2.50;1.52;;;;;;;30.04;43.59;100432.08;4973549;57;1138661;-68
2023/07/16 16:28:44;;;;;;;2.25;1.57;;;;;;;30.06;41.89;100435.92;4987288;57;1138534;-68
2023/07/16 16:33:50;;;;;;;3.12;1.90;;;;;;;29.98;42.07;100430.33;4889567;59;1139001;-69
2023/07/16 16:38:55;;;;;;;4.50;2.27;;;;;;;29.94;42.00;100435.16;4831047;58;1138908;-68
2023/07/16 16:44:01;;;;;;;3.87;1.95;;;;;;;29.90;42.35;100432.09;5043394;56;1138780;-70
2023/07/16 16:49:07;;;;;;;3.02;1.92;;;;;;;29.87;42.37;100424.94;4974583;56;1138761;-69
2023/07/16 16:54:13;;;;;;;4.72;1.85;;;;;;;29.92;43.50;100419.58;4942342;57;1138765;-69
2023/07/16 16:59:18;;;;;;;3.85;1.50;;;;;;;29.95;41.87;100430.79;4962434;57;1138681;-67
2023/07/16 17:04:24;;;;;;;2.50;1.85;;;;;;;29.90;40.08;100428.00;4943605;57;1138890;-67
2023/07/16 17:09:29;;;;;;;2.65;2.45;;;;;;;29.83;40.63;100434.14;4993818;57;1138803;-67
2023/07/16 17:14:35;;;;;;;2.47;2.08;;;;;;;29.76;39.81;100428.04;5031428;57;1139202;-67
2023/07/16 17:19:46;;;;;;;5.37;1.77;;;;;;;29.61;39.93;100435.95;4971341;57;1138930;-69
2023/07/16 17:24:52;;;;;;;5.15;2.02;;;;;;;29.42;40.22;100438.60;4942742;57;1138737;-65
2023/07/16 17:29:58;;;;;;;5.67;2.25;;;;;;;29.24;39.88;100445.05;4962001;56;1138919;-66
2023/07/16 17:35:03;;;;;;;2.40;2.02;;;;;;;29.08;40.42;100452.09;4990780;56;1138609;-68
2023/07/16 17:40:11;;;;;;;6.47;1.52;;;;;;;29.09;40.66;100451.55;5001965;56;1138912;-69
2023/07/16 17:45:18;;;;;;;4.67;1.90;;;;;;;29.07;40.89;100459.14;4986049;56;1138821;-69
2023/07/16 17:50:23;;;;;;;6.75;2.37;;;;;;;29.01;40.62;100465.86;4991858;55;1138870;-67
2023/07/16 17:55:29;;;;;;;4.08;2.27;;;;;;;28.96;41.17;100464.39;4973229;56;1138911;-66
2023/07/16 18:00:35;;;;;;;4.58;2.25;;;;;;;28.89;39.55;100466.94;4973179;56;1138845;-68
2023/07/16 18:05:41;;;;;;;4.90;2.30;;;;;;;28.77;39.32;100473.74;4992736;56;1138796;-69
2023/07/16 18:10:47;;;;;;;2.40;1.82;;;;;;;28.58;39.79;100480.39;4973045;57;1138967;-67
2023/07/16 18:15:52;;;;;;;4.40;1.95;;;;;;;28.49;39.90;100485.38;5020197;56;1138743;-65
2023/07/16 18:20:58;;;;;;;5.55;2.83;;;;;;;28.39;40.18;100491.95;5062403;56;1138609;-67
2023/07/16 18:26:04;;;;;;;3.77;2.70;;;;;;;28.30;40.11;100484.66;4981440;57;1138745;-66
2023/07/16 18:31:09;;;;;;;2.30;2.10;;;;;;;28.19;40.60;100495.53;5050633;56;1139385;-67
2023/07/16 18:36:15;;;;;;;5.00;2.22;;;;;;;28.08;40.72;100497.16;5052834;56;1138810;-69
2023/07/16 18:41:21;;;;;;;2.77;2.00;;;;;;;27.97;41.08;100506.09;5071739;56;1139130;-66
2023/07/16 18:46:26;;;;;;;2.85;2.05;;;;;;;27.83;41.32;100507.36;5019032;57;1138763;-68
2023/07/16 18:51:32;;;;;;;4.77;2.20;;;;;;;27.72;41.44;100515.79;5018824;57;1139066;-65
2023/07/16 18:56:38;;;;;;;5.75;2.45;;;;;;;27.60;41.64;100527.16;4976571;57;1138693;-66
2023/07/16 19:01:44;;;;;;;2.52;1.77;;;;;;;27.47;42.04;100538.17;4897322;57;1138861;-65
2023/07/16 19:06:50;;;;;;;2.67;2.42;;;;;;;27.33;41.82;100542.12;4938765;57;1138849;-66
2023/07/16 19:12:00;;;;;;;4.20;1.97;;;;;;;27.20;41.65;100551.23;4914747;57;1138702;-65
2023/07/16 19:17:09;;;;;;;3.83;1.75;;;;;;;27.06;41.73;100559.23;4944173;57;1138642;-68
2023/07/16 19:22:15;;;;;;;3.10;2.52;;;;;;;26.93;41.63;100561.53;4963571;57;1138856;-68
2023/07/16 19:27:21;;;;;;;4.78;1.98;;;;;;;26.78;41.81;100570.03;5020118;57;1138792;-69
2023/07/16 19:32:26;;;;;;;2.15;1.77;;;;;;;26.64;42.19;100576.64;5039708;57;1139081;-67
2023/07/16 19:37:32;;;;;;;8.30;2.08;;;;;;;26.52;42.24;100574.36;5071762;56;1138928;-66
2023/07/16 19:42:38;;;;;;;3.22;2.20;;;;;;;26.40;42.33;100581.56;4999442;57;1138920;-68
2023/07/16 19:47:43;;;;;;;6.12;2.15;;;;;;;26.31;42.59;100588.28;4992785;56;1138667;-66
2023/07/16 19:52:49;;;;;;;9.30;2.10;;;;;;;26.14;42.66;100586.08;4953018;56;1138960;-67
2023/07/16 19:57:55;;;;;;;7.00;2.15;;;;;;;25.95;43.15;100587.05;4944056;57;1138849;-67
2023/07/16 20:03:00;;;;;;;2.92;1.90;;;;;;;25.74;43.47;100593.63;4973772;57;1138731;-69
2023/07/16 20:08:09;;;;;;;3.72;2.02;;;;;;;25.60;43.74;100594.70;4966029;56;1138849;-70
2023/07/16 20:13:16;;;;;;;3.83;2.50;;;;;;;25.45;44.06;100593.63;4994119;56;1138827;-67
2023/07/16 20:18:22;;;;;;;4.03;2.10;;;;;;;25.40;44.16;100595.30;5057924;56;1138830;-69
2023/07/16 20:23:28;;;;;;;4.67;2.47;;;;;;;25.41;44.37;100589.67;5023883;56;1139173;-66
2023/07/16 20:28:33;;;;;;;3.40;2.27;;;;;;;25.45;44.96;100588.73;4975513;56;1138657;-66
2023/07/16 20:33:39;;;;;;;3.22;2.25;;;;;;;25.50;45.33;100602.47;5031895;56;1138869;-68
2023/07/16 20:38:45;;;;;;;5.97;2.92;;;;;;;25.56;46.22;100594.30;5046235;56;1138931;-69
2023/07/16 20:43:50;;;;;;;23.55;4.78;;;;;;;25.56;46.95;100602.42;5057626;56;1138966;-68
2023/07/16 20:48:56;;;;;;;20.43;6.10;;;;;;;25.53;48.14;100597.95;5045610;56;1140857;-67
2023/07/16 20:54:02;;;;;;;8.70;4.35;;;;;;;25.41;49.73;100597.80;5002171;56;1140853;-68
2023/07/16 20:59:08;;;;;;;6.40;3.83;;;;;;;25.31;51.33;100600.66;4990502;57;1138713;-65
2023/07/16 21:04:14;;;;;;;10.43;3.77;;;;;;;25.21;52.01;100608.67;5003135;56;1138533;-66
2023/07/16 21:09:19;;;;;;;6.83;4.03;;;;;;;25.13;52.63;100612.14;5049033;56;1140722;-69
2023/07/16 21:14:25;;;;;;;3.98;3.47;;;;;;;24.95;53.34;100608.73;5061343;57;1139021;-65
2023/07/16 21:19:31;;;;;;;7.33;3.42;;;;;;;24.83;53.68;100609.04;5029455;57;1138906;-67
2023/07/16 21:24:37;;;;;;;6.03;3.43;;;;;;;24.73;54.36;100605.42;4978645;57;1138937;-64
2023/07/16 21:29:42;;;;;;;6.28;3.02;;;;;;;24.58;54.51;100602.09;4991681;57;1138666;-66
2023/07/16 21:34:49;;;;;;;8.73;2.85;;;;;;;24.42;54.91;100604.70;4985813;57;1138767;-69
2023/07/16 21:39:55;;;;;;;6.22;4.60;;;;;;;24.35;55.45;100609.77;5055000;57;1138701;-66
2023/07/16 21:45:01;;;;;;;10.63;3.65;;;;;;;24.30;55.16;100617.66;5074824;56;1138744;-69
2023/07/16 21:50:08;;;;;;;4.33;3.17;;;;;;;24.09;55.16;100612.72;5053480;56;1140949;-69
2023/07/16 21:55:13;;;;;;;24.52;15.18;;;;;;;24.00;55.70;100620.69;5052806;57;1138830;-65
2023/07/16 22:00:22;;;;;;;6.78;5.62;;;;;;;23.91;57.29;100625.97;5052092;56;1142956;-68
2023/07/16 22:05:26;;;;;;;6.62;3.78;;;;;;;23.81;57.73;100625.53;5073016;57;1138614;-68
2023/07/16 22:10:32;;;;;;;8.80;6.08;;;;;;;23.74;58.38;100623.31;5052870;57;1138594;-70
2023/07/16 22:15:38;;;;;;;7.47;4.93;;;;;;;23.70;58.68;100615.29;5052894;57;1138680;-66
2023/07/16 22:20:43;;;;;;;8.13;4.53;;;;;;;23.64;58.94;100624.22;5063506;57;1138624;-68
2023/07/16 22:25:49;;;;;;;4.42;3.27;;;;;;;23.52;59.50;100614.52;4968156;57;1138709;-68
2023/07/16 22:30:55;;;;;;;5.47;4.00;;;;;;;23.37;58.94;100616.48;4966757;57;1138916;-67
2023/07/16 22:36:02;;;;;;;6.45;3.33;;;;;;;23.25;59.23;100622.94;5020594;57;1138688;-68
2023/07/16 22:41:08;;;;;;;6.20;2.80;;;;;;;23.19;59.75;100625.10;4890467;59;1138646;-67
2023/07/16 22:46:15;;;;;;;6.30;3.70;;;;;;;23.08;60.01;100627.81;4891058;59;1138703;-65
2023/07/16 22:51:21;;;;;;;6.43;3.90;;;;;;;23.00;60.33;100629.33;5050729;57;1138873;-66
2023/07/16 22:56:27;;;;;;;4.20;3.67;;;;;;;22.89;60.83;100629.88;4958907;58;1138782;-68
2023/07/16 23:01:32;;;;;;;117.57;77.75;;;;;;;22.68;61.23;100632.06;4973026;57;1138890;-69
2023/07/16 23:06:39;;;;;;;24.55;15.28;;;;;;;22.53;62.60;100640.75;5047360;56;1145379;-68
2023/07/16 23:11:44;;;;;;;4.12;3.68;;;;;;;22.51;63.41;100636.57;5074493;57;1142906;-68